sensor_id;sensor_type;location;lat;lon;timestamp;temperature;humidity
20957;DHT22;10637;47.970;7.830;2023-04-15T00:04:39;6.60;99.90
20957;DHT22;10637;47.970;7.830;2023-04-15T00:09:41;6.40;99.90
20957;DHT22;10637;47.970;7.830;2023-04-15T00:14:43;6.70;99.90
20957;DHT22;10637;47.970;7.830;2023-04-15T00:19:45;6.70;99.90
20957;DHT22;10637;47.970;7.830;2023-04-15T00:24:47;6.90;99.90
20957;DHT22;10637;47.970;7.830;2023-04-15T00:29:49;6.90;99.90
20957;DHT22;10637;47.970;7.830;2023-04-15T00:34:50;7.20;99.90
20957;DHT22;10637;47.970;7.830;2023-04-15T00:39:52;7.10;99.90
20957;DHT22;10637;47.970;7.830;2023-04-15T00:44:54;7.40;99.90
20957;DHT22;10637;47.970;7.830;2023-04-15T00:49:56;7.50;99.90
20957;DHT22;10637;47.970;7.830;2023-04-15T00:54:59;7.50;99.90
20957;DHT22;10637;47.970;7.830;2023-04-15T01:00:01;7.40;99.90
20957;DHT22;10637;47.970;7.830;2023-04-15T01:05:04;7.50;99.90
20957;DHT22;10637;47.970;7.830;2023-04-15T01:10:06;7.60;99.90
20957;DHT22;10637;47.970;7.830;2023-04-15T01:15:08;7.80;99.90
20957;DHT22;10637;47.970;7.830;2023-04-15T01:20:12;7.80;99.90
20957;DHT22;10637;47.970;7.830;2023-04-15T01:25:18;7.90;99.90
20957;DHT22;10637;47.970;7.830;2023-04-15T01:30:20;7.70;99.90
20957;DHT22;10637;47.970;7.830;2023-04-15T01:35:22;7.80;99.90
20957;DHT22;10637;47.970;7.830;2023-04-15T01:40:24;7.70;99.90
20957;DHT22;10637;47.970;7.830;2023-04-15T01:45:26;7.80;99.90
20957;DHT22;10637;47.970;7.830;2023-04-15T01:50:28;7.90;99.90
20957;DHT22;10637;47.970;7.830;2023-04-15T01:55:29;8.00;99.90
20957;DHT22;10637;47.970;7.830;2023-04-15T02:00:31;7.90;99.90
20957;DHT22;10637;47.970;7.830;2023-04-15T02:05:33;7.90;99.90
20957;DHT22;10637;47.970;7.830;2023-04-15T02:10:35;8.00;99.90
20957;DHT22;10637;47.970;7.830;2023-04-15T02:15:36;8.10;99.90
20957;DHT22;10637;47.970;7.830;2023-04-15T02:20:38;8.10;99.90
20957;DHT22;10637;47.970;7.830;2023-04-15T02:25:40;8.20;99.90
20957;DHT22;10637;47.970;7.830;2023-04-15T02:30:42;8.20;99.90
20957;DHT22;10637;47.970;7.830;2023-04-15T02:35:43;8.20;99.90
20957;DHT22;10637;47.970;7.830;2023-04-15T02:40:46;8.30;99.90
20957;DHT22;10637;47.970;7.830;2023-04-15T02:45:50;8.40;99.90
20957;DHT22;10637;47.970;7.830;2023-04-15T02:50:52;8.50;99.90
20957;DHT22;10637;47.970;7.830;2023-04-15T02:55:54;8.50;99.90
20957;DHT22;10637;47.970;7.830;2023-04-15T03:00:56;8.60;99.90
20957;DHT22;10637;47.970;7.830;2023-04-15T03:05:58;8.60;99.90
20957;DHT22;10637;47.970;7.830;2023-04-15T03:10:59;8.60;99.90
20957;DHT22;10637;47.970;7.830;2023-04-15T03:16:03;8.60;99.90
20957;DHT22;10637;47.970;7.830;2023-04-15T03:21:06;8.70;99.90
20957;DHT22;10637;47.970;7.830;2023-04-15T03:26:07;8.70;99.90
20957;DHT22;10637;47.970;7.830;2023-04-15T03:31:09;8.70;99.90
20957;DHT22;10637;47.970;7.830;2023-04-15T03:36:11;8.70;99.90
20957;DHT22;10637;47.970;7.830;2023-04-15T03:41:13;8.70;99.90
20957;DHT22;10637;47.970;7.830;2023-04-15T03:46:14;8.80;99.90
20957;DHT22;10637;47.970;7.830;2023-04-15T03:51:16;8.80;99.90
20957;DHT22;10637;47.970;7.830;2023-04-15T03:56:18;8.80;99.90
20957;DHT22;10637;47.970;7.830;2023-04-15T04:01:20;8.80;99.90
20957;DHT22;10637;47.970;7.830;2023-04-15T04:06:21;8.80;99.90
20957;DHT22;10637;47.970;7.830;2023-04-15T04:11:23;8.80;99.90
20957;DHT22;10637;47.970;7.830;2023-04-15T04:16:25;8.80;99.90
20957;DHT22;10637;47.970;7.830;2023-04-15T04:21:27;8.90;99.90
20957;DHT22;10637;47.970;7.830;2023-04-15T04:26:29;8.80;99.90
20957;DHT22;10637;47.970;7.830;2023-04-15T04:31:31;8.80;99.90
20957;DHT22;10637;47.970;7.830;2023-04-15T04:36:32;8.80;99.90
20957;DHT22;10637;47.970;7.830;2023-04-15T04:41:34;8.80;99.90
20957;DHT22;10637;47.970;7.830;2023-04-15T04:46:36;8.80;99.90
20957;DHT22;10637;47.970;7.830;2023-04-15T04:51:38;8.80;99.90
20957;DHT22;10637;47.970;7.830;2023-04-15T04:56:40;8.80;99.90
20957;DHT22;10637;47.970;7.830;2023-04-15T05:01:42;8.80;99.90
20957;DHT22;10637;47.970;7.830;2023-04-15T05:06:43;9.00;99.90
20957;DHT22;10637;47.970;7.830;2023-04-15T05:11:45;9.00;99.90
20957;DHT22;10637;47.970;7.830;2023-04-15T05:16:47;9.00;99.90
20957;DHT22;10637;47.970;7.830;2023-04-15T05:21:49;9.10;99.90
20957;DHT22;10637;47.970;7.830;2023-04-15T05:26:51;9.20;99.90
20957;DHT22;10637;47.970;7.830;2023-04-15T05:31:53;9.20;99.90
20957;DHT22;10637;47.970;7.830;2023-04-15T05:36:55;9.30;99.90
20957;DHT22;10637;47.970;7.830;2023-04-15T05:41:57;9.40;99.90
20957;DHT22;10637;47.970;7.830;2023-04-15T05:46:58;9.30;99.90
20957;DHT22;10637;47.970;7.830;2023-04-15T05:52:01;9.30;99.90
20957;DHT22;10637;47.970;7.830;2023-04-15T05:57:03;9.60;99.90
20957;DHT22;10637;47.970;7.830;2023-04-15T06:02:05;9.70;99.90
20957;DHT22;10637;47.970;7.830;2023-04-15T06:07:07;9.90;99.90
20957;DHT22;10637;47.970;7.830;2023-04-15T06:12:08;10.00;99.90
20957;DHT22;10637;47.970;7.830;2023-04-15T06:17:12;10.20;99.90
20957;DHT22;10637;47.970;7.830;2023-04-15T06:22:15;10.40;99.90
20957;DHT22;10637;47.970;7.830;2023-04-15T06:27:17;10.60;99.90
20957;DHT22;10637;47.970;7.830;2023-04-15T06:32:19;10.70;99.90
20957;DHT22;10637;47.970;7.830;2023-04-15T06:37:22;10.50;99.90
20957;DHT22;10637;47.970;7.830;2023-04-15T06:42:24;10.50;99.90
20957;DHT22;10637;47.970;7.830;2023-04-15T06:47:26;10.50;99.90
20957;DHT22;10637;47.970;7.830;2023-04-15T06:52:27;10.50;99.90
20957;DHT22;10637;47.970;7.830;2023-04-15T06:57:29;10.80;99.90
20957;DHT22;10637;47.970;7.830;2023-04-15T07:02:33;11.10;99.90
20957;DHT22;10637;47.970;7.830;2023-04-15T07:07:35;11.40;99.90
20957;DHT22;10637;47.970;7.830;2023-04-15T07:12:37;11.50;99.90
20957;DHT22;10637;47.970;7.830;2023-04-15T07:17:40;11.60;99.90
20957;DHT22;10637;47.970;7.830;2023-04-15T07:22:42;11.70;99.90
20957;DHT22;10637;47.970;7.830;2023-04-15T07:27:44;11.80;99.90
20957;DHT22;10637;47.970;7.830;2023-04-15T07:32:46;11.80;99.90
20957;DHT22;10637;47.970;7.830;2023-04-15T07:37:47;12.00;99.90
20957;DHT22;10637;47.970;7.830;2023-04-15T07:42:49;12.20;99.90
20957;DHT22;10637;47.970;7.830;2023-04-15T07:47:51;12.30;99.90
20957;DHT22;10637;47.970;7.830;2023-04-15T07:52:53;12.60;99.90
20957;DHT22;10637;47.970;7.830;2023-04-15T07:57:55;12.90;99.90
20957;DHT22;10637;47.970;7.830;2023-04-15T08:02:57;13.00;99.90
20957;DHT22;10637;47.970;7.830;2023-04-15T08:08:00;13.10;99.90
20957;DHT22;10637;47.970;7.830;2023-04-15T08:13:02;13.20;99.90
20957;DHT22;10637;47.970;7.830;2023-04-15T08:18:04;13.40;99.90
20957;DHT22;10637;47.970;7.830;2023-04-15T08:23:06;13.30;99.90
20957;DHT22;10637;47.970;7.830;2023-04-15T08:28:07;13.30;99.90
20957;DHT22;10637;47.970;7.830;2023-04-15T08:33:09;13.20;99.90
20957;DHT22;10637;47.970;7.830;2023-04-15T08:38:11;13.20;99.90
20957;DHT22;10637;47.970;7.830;2023-04-15T08:43:23;13.30;99.90
20957;DHT22;10637;47.970;7.830;2023-04-15T08:48:31;13.40;99.90
20957;DHT22;10637;47.970;7.830;2023-04-15T08:53:33;13.50;99.90
20957;DHT22;10637;47.970;7.830;2023-04-15T08:58:36;13.60;99.90
20957;DHT22;10637;47.970;7.830;2023-04-15T09:03:39;13.50;99.90
20957;DHT22;10637;47.970;7.830;2023-04-15T09:08:41;13.80;99.90
20957;DHT22;10637;47.970;7.830;2023-04-15T09:13:43;14.10;99.90
20957;DHT22;10637;47.970;7.830;2023-04-15T09:18:45;14.20;99.90
20957;DHT22;10637;47.970;7.830;2023-04-15T09:23:56;14.40;99.90
20957;DHT22;10637;47.970;7.830;2023-04-15T09:29:03;14.60;99.90
20957;DHT22;10637;47.970;7.830;2023-04-15T09:34:06;15.10;99.90
20957;DHT22;10637;47.970;7.830;2023-04-15T09:39:08;15.70;99.90
20957;DHT22;10637;47.970;7.830;2023-04-15T09:44:23;16.00;99.90
20957;DHT22;10637;47.970;7.830;2023-04-15T09:49:25;15.90;99.50
20957;DHT22;10637;47.970;7.830;2023-04-15T09:54:33;16.20;99.90
20957;DHT22;10637;47.970;7.830;2023-04-15T09:59:36;16.80;98.40
20957;DHT22;10637;47.970;7.830;2023-04-15T10:04:41;16.90;98.50
20957;DHT22;10637;47.970;7.830;2023-04-15T10:09:45;16.70;96.70
20957;DHT22;10637;47.970;7.830;2023-04-15T10:14:49;16.80;97.50
20957;DHT22;10637;47.970;7.830;2023-04-15T10:19:53;17.10;97.40
20957;DHT22;10637;47.970;7.830;2023-04-15T10:24:56;17.10;95.40
20957;DHT22;10637;47.970;7.830;2023-04-15T10:30:00;16.90;95.40
20957;DHT22;10637;47.970;7.830;2023-04-15T10:35:05;16.80;95.90
20957;DHT22;10637;47.970;7.830;2023-04-15T10:40:23;17.20;96.30
20957;DHT22;10637;47.970;7.830;2023-04-15T10:45:35;17.00;97.00
20957;DHT22;10637;47.970;7.830;2023-04-15T10:50:37;17.10;96.40
20957;DHT22;10637;47.970;7.830;2023-04-15T10:55:40;17.50;95.30
20957;DHT22;10637;47.970;7.830;2023-04-15T11:00:49;17.40;95.30
20957;DHT22;10637;47.970;7.830;2023-04-15T11:05:55;18.00;96.80
20957;DHT22;10637;47.970;7.830;2023-04-15T11:10:57;18.70;93.20
20957;DHT22;10637;47.970;7.830;2023-04-15T11:16:00;18.40;93.40
20957;DHT22;10637;47.970;7.830;2023-04-15T11:21:04;18.10;94.00
20957;DHT22;10637;47.970;7.830;2023-04-15T11:26:08;18.10;93.50
20957;DHT22;10637;47.970;7.830;2023-04-15T11:31:16;18.50;94.30
20957;DHT22;10637;47.970;7.830;2023-04-15T11:36:18;18.10;93.20
20957;DHT22;10637;47.970;7.830;2023-04-15T11:41:21;17.20;94.70
20957;DHT22;10637;47.970;7.830;2023-04-15T11:46:30;17.10;94.50
20957;DHT22;10637;47.970;7.830;2023-04-15T11:51:33;16.70;94.20
20957;DHT22;10637;47.970;7.830;2023-04-15T11:56:35;16.30;95.30
20957;DHT22;10637;47.970;7.830;2023-04-15T12:01:37;16.50;95.60
20957;DHT22;10637;47.970;7.830;2023-04-15T12:06:47;16.60;95.90
20957;DHT22;10637;47.970;7.830;2023-04-15T12:11:56;16.40;95.70
20957;DHT22;10637;47.970;7.830;2023-04-15T12:17:03;16.30;96.30
20957;DHT22;10637;47.970;7.830;2023-04-15T12:22:08;16.20;95.90
20957;DHT22;10637;47.970;7.830;2023-04-15T12:27:11;15.60;95.90
20957;DHT22;10637;47.970;7.830;2023-04-15T12:32:14;15.50;96.80
20957;DHT22;10637;47.970;7.830;2023-04-15T12:37:17;15.90;95.80
20957;DHT22;10637;47.970;7.830;2023-04-15T12:42:19;16.30;95.60
20957;DHT22;10637;47.970;7.830;2023-04-15T12:47:21;16.80;94.50
20957;DHT22;10637;47.970;7.830;2023-04-15T12:52:23;17.20;93.10
20957;DHT22;10637;47.970;7.830;2023-04-15T12:57:25;17.40;93.60
20957;DHT22;10637;47.970;7.830;2023-04-15T13:02:27;17.70;92.00
20957;DHT22;10637;47.970;7.830;2023-04-15T13:07:30;18.20;92.30
20957;DHT22;10637;47.970;7.830;2023-04-15T13:12:32;18.10;91.70
20957;DHT22;10637;47.970;7.830;2023-04-15T13:17:37;17.40;90.60
20957;DHT22;10637;47.970;7.830;2023-04-15T13:22:39;16.70;92.60
20957;DHT22;10637;47.970;7.830;2023-04-15T13:27:41;16.50;93.40
20957;DHT22;10637;47.970;7.830;2023-04-15T13:32:43;16.30;92.70
20957;DHT22;10637;47.970;7.830;2023-04-15T13:37:45;16.00;92.10
20957;DHT22;10637;47.970;7.830;2023-04-15T13:42:47;16.20;95.70
20957;DHT22;10637;47.970;7.830;2023-04-15T13:47:49;15.30;99.40
20957;DHT22;10637;47.970;7.830;2023-04-15T13:52:51;15.20;99.90
20957;DHT22;10637;47.970;7.830;2023-04-15T13:57:53;15.00;99.90
20957;DHT22;10637;47.970;7.830;2023-04-15T14:02:55;15.00;99.90
20957;DHT22;10637;47.970;7.830;2023-04-15T14:07:58;14.90;99.90
20957;DHT22;10637;47.970;7.830;2023-04-15T14:13:00;15.40;99.90
20957;DHT22;10637;47.970;7.830;2023-04-15T14:18:02;15.90;99.90
20957;DHT22;10637;47.970;7.830;2023-04-15T14:23:04;15.40;99.90
20957;DHT22;10637;47.970;7.830;2023-04-15T14:28:06;15.10;99.90
20957;DHT22;10637;47.970;7.830;2023-04-15T14:33:07;15.00;99.90
20957;DHT22;10637;47.970;7.830;2023-04-15T14:38:10;14.60;99.90
20957;DHT22;10637;47.970;7.830;2023-04-15T14:43:12;14.50;99.90
20957;DHT22;10637;47.970;7.830;2023-04-15T14:48:13;14.20;99.90
20957;DHT22;10637;47.970;7.830;2023-04-15T14:53:15;14.40;99.90
20957;DHT22;10637;47.970;7.830;2023-04-15T14:58:17;14.70;99.90
20957;DHT22;10637;47.970;7.830;2023-04-15T15:03:19;15.50;99.90
20957;DHT22;10637;47.970;7.830;2023-04-15T15:08:22;15.70;99.90
20957;DHT22;10637;47.970;7.830;2023-04-15T15:13:24;16.00;99.50
20957;DHT22;10637;47.970;7.830;2023-04-15T15:18:26;16.20;98.00
20957;DHT22;10637;47.970;7.830;2023-04-15T15:23:27;16.20;98.30
20957;DHT22;10637;47.970;7.830;2023-04-15T15:28:29;16.10;98.20
20957;DHT22;10637;47.970;7.830;2023-04-15T15:33:31;15.90;98.70
20957;DHT22;10637;47.970;7.830;2023-04-15T15:38:33;15.40;99.80
20957;DHT22;10637;47.970;7.830;2023-04-15T15:43:35;15.50;99.30
20957;DHT22;10637;47.970;7.830;2023-04-15T15:48:36;15.30;99.70
20957;DHT22;10637;47.970;7.830;2023-04-15T15:53:38;15.30;99.80
20957;DHT22;10637;47.970;7.830;2023-04-15T15:58:41;15.60;98.60
20957;DHT22;10637;47.970;7.830;2023-04-15T16:03:44;15.60;99.20
20957;DHT22;10637;47.970;7.830;2023-04-15T16:08:46;15.40;99.90
20957;DHT22;10637;47.970;7.830;2023-04-15T16:13:48;15.50;99.70
20957;DHT22;10637;47.970;7.830;2023-04-15T16:18:49;15.30;99.20
20957;DHT22;10637;47.970;7.830;2023-04-15T16:23:51;15.30;99.50
20957;DHT22;10637;47.970;7.830;2023-04-15T16:28:53;15.00;99.90
20957;DHT22;10637;47.970;7.830;2023-04-15T16:33:55;14.60;99.90
20957;DHT22;10637;47.970;7.830;2023-04-15T16:38:58;14.40;99.90
20957;DHT22;10637;47.970;7.830;2023-04-15T16:44:01;14.50;99.90
20957;DHT22;10637;47.970;7.830;2023-04-15T16:49:03;14.50;99.90
20957;DHT22;10637;47.970;7.830;2023-04-15T16:54:05;14.30;99.90
20957;DHT22;10637;47.970;7.830;2023-04-15T16:59:07;14.20;99.90
20957;DHT22;10637;47.970;7.830;2023-04-15T17:04:09;14.20;99.90
20957;DHT22;10637;47.970;7.830;2023-04-15T17:09:11;14.10;99.90
20957;DHT22;10637;47.970;7.830;2023-04-15T17:14:12;13.90;99.90
20957;DHT22;10637;47.970;7.830;2023-04-15T17:19:14;13.90;99.90
20957;DHT22;10637;47.970;7.830;2023-04-15T17:24:17;13.90;99.90
20957;DHT22;10637;47.970;7.830;2023-04-15T17:29:18;13.80;99.90
20957;DHT22;10637;47.970;7.830;2023-04-15T17:34:20;13.60;99.90
20957;DHT22;10637;47.970;7.830;2023-04-15T17:39:22;13.40;99.90
20957;DHT22;10637;47.970;7.830;2023-04-15T17:44:24;13.10;99.90
20957;DHT22;10637;47.970;7.830;2023-04-15T17:49:26;13.10;99.90
20957;DHT22;10637;47.970;7.830;2023-04-15T17:54:28;13.00;99.90
20957;DHT22;10637;47.970;7.830;2023-04-15T17:59:29;13.00;99.90
20957;DHT22;10637;47.970;7.830;2023-04-15T18:04:31;12.80;99.90
20957;DHT22;10637;47.970;7.830;2023-04-15T18:09:33;12.70;99.90
20957;DHT22;10637;47.970;7.830;2023-04-15T18:14:35;12.50;99.90
20957;DHT22;10637;47.970;7.830;2023-04-15T18:19:37;12.50;99.90
20957;DHT22;10637;47.970;7.830;2023-04-15T18:24:39;12.50;99.90
20957;DHT22;10637;47.970;7.830;2023-04-15T18:29:40;12.50;99.90
20957;DHT22;10637;47.970;7.830;2023-04-15T18:34:43;12.40;99.90
20957;DHT22;10637;47.970;7.830;2023-04-15T18:39:45;12.30;99.90
20957;DHT22;10637;47.970;7.830;2023-04-15T18:44:47;12.30;99.90
20957;DHT22;10637;47.970;7.830;2023-04-15T18:49:49;12.20;99.90
20957;DHT22;10637;47.970;7.830;2023-04-15T18:54:51;12.10;99.90
20957;DHT22;10637;47.970;7.830;2023-04-15T18:59:53;12.20;99.90
20957;DHT22;10637;47.970;7.830;2023-04-15T19:04:54;12.20;99.90
20957;DHT22;10637;47.970;7.830;2023-04-15T19:09:56;12.20;99.90
20957;DHT22;10637;47.970;7.830;2023-04-15T19:14:58;12.10;99.90
20957;DHT22;10637;47.970;7.830;2023-04-15T19:20:00;12.10;99.90
20957;DHT22;10637;47.970;7.830;2023-04-15T19:25:02;12.10;99.90
20957;DHT22;10637;47.970;7.830;2023-04-15T19:30:05;11.90;99.90
20957;DHT22;10637;47.970;7.830;2023-04-15T19:35:08;11.90;99.90
20957;DHT22;10637;47.970;7.830;2023-04-15T19:40:12;12.00;99.90
20957;DHT22;10637;47.970;7.830;2023-04-15T19:45:14;12.00;99.90
20957;DHT22;10637;47.970;7.830;2023-04-15T19:50:16;12.00;99.90
20957;DHT22;10637;47.970;7.830;2023-04-15T19:55:20;11.90;99.90
20957;DHT22;10637;47.970;7.830;2023-04-15T20:00:21;12.10;99.90
20957;DHT22;10637;47.970;7.830;2023-04-15T20:05:23;12.20;99.90
20957;DHT22;10637;47.970;7.830;2023-04-15T20:10:25;12.30;99.90
20957;DHT22;10637;47.970;7.830;2023-04-15T20:15:27;12.20;99.90
20957;DHT22;10637;47.970;7.830;2023-04-15T20:20:29;12.10;99.90
20957;DHT22;10637;47.970;7.830;2023-04-15T20:25:31;12.20;99.90
20957;DHT22;10637;47.970;7.830;2023-04-15T20:30:33;12.00;99.90
20957;DHT22;10637;47.970;7.830;2023-04-15T20:35:35;11.90;99.90
20957;DHT22;10637;47.970;7.830;2023-04-15T20:40:37;11.90;99.90
20957;DHT22;10637;47.970;7.830;2023-04-15T20:45:41;11.80;99.90
20957;DHT22;10637;47.970;7.830;2023-04-15T20:50:42;11.70;99.90
20957;DHT22;10637;47.970;7.830;2023-04-15T20:55:44;11.70;99.90
20957;DHT22;10637;47.970;7.830;2023-04-15T21:00:46;11.80;99.90
20957;DHT22;10637;47.970;7.830;2023-04-15T21:05:48;11.80;99.90
20957;DHT22;10637;47.970;7.830;2023-04-15T21:10:49;11.80;99.90
20957;DHT22;10637;47.970;7.830;2023-04-15T21:15:51;11.80;99.90
20957;DHT22;10637;47.970;7.830;2023-04-15T21:20:59;11.60;99.90
20957;DHT22;10637;47.970;7.830;2023-04-15T21:26:01;11.40;99.90
20957;DHT22;10637;47.970;7.830;2023-04-15T21:31:03;11.60;99.90
20957;DHT22;10637;47.970;7.830;2023-04-15T21:36:05;11.60;99.90
20957;DHT22;10637;47.970;7.830;2023-04-15T21:41:07;11.60;99.90
20957;DHT22;10637;47.970;7.830;2023-04-15T21:46:10;11.40;99.90
20957;DHT22;10637;47.970;7.830;2023-04-15T21:51:25;11.20;99.90
20957;DHT22;10637;47.970;7.830;2023-04-15T21:56:27;11.10;99.90
20957;DHT22;10637;47.970;7.830;2023-04-15T22:01:29;11.20;99.90
20957;DHT22;10637;47.970;7.830;2023-04-15T22:06:31;11.20;99.90
20957;DHT22;10637;47.970;7.830;2023-04-15T22:11:32;11.00;99.90
20957;DHT22;10637;47.970;7.830;2023-04-15T22:16:34;11.00;99.90
20957;DHT22;10637;47.970;7.830;2023-04-15T22:21:36;10.90;99.90
20957;DHT22;10637;47.970;7.830;2023-04-15T22:26:38;11.00;99.90
20957;DHT22;10637;47.970;7.830;2023-04-15T22:31:39;10.80;99.90
20957;DHT22;10637;47.970;7.830;2023-04-15T22:36:42;10.80;99.90
20957;DHT22;10637;47.970;7.830;2023-04-15T22:41:45;10.70;99.90
20957;DHT22;10637;47.970;7.830;2023-04-15T22:46:49;10.80;99.90
20957;DHT22;10637;47.970;7.830;2023-04-15T22:51:51;10.60;99.90
20957;DHT22;10637;47.970;7.830;2023-04-15T22:56:53;10.60;99.90
20957;DHT22;10637;47.970;7.830;2023-04-15T23:01:54;10.70;99.90
20957;DHT22;10637;47.970;7.830;2023-04-15T23:06:58;10.40;99.90
20957;DHT22;10637;47.970;7.830;2023-04-15T23:12:00;10.30;99.90
20957;DHT22;10637;47.970;7.830;2023-04-15T23:17:02;10.30;99.90
20957;DHT22;10637;47.970;7.830;2023-04-15T23:22:04;10.30;99.90
20957;DHT22;10637;47.970;7.830;2023-04-15T23:27:07;10.20;99.90
20957;DHT22;10637;47.970;7.830;2023-04-15T23:32:09;10.30;99.90
20957;DHT22;10637;47.970;7.830;2023-04-15T23:37:11;10.30;99.90
20957;DHT22;10637;47.970;7.830;2023-04-15T23:42:12;10.20;99.90
20957;DHT22;10637;47.970;7.830;2023-04-15T23:47:14;10.20;99.90
20957;DHT22;10637;47.970;7.830;2023-04-15T23:52:16;10.30;99.90
20957;DHT22;10637;47.970;7.830;2023-04-15T23:57:18;10.20;99.90
